Time;durP1;ratioP1;P1;durP2;ratioP2;P2;SDS_P1;SDS_P2;PMS_P1;PMS_P2;Temp;Humidity;BMP_temperature;BMP_pressure;BME280_temperature;BME280_humidity;BME280_pressure;Samples;Min_cycle;Max_cycle;Signal;HPM_P1;HPM_P2
2022/04/21 00:00:59;;;;;;;6.30;4.68;;;;;;;-148.33;100.00;56587.81;5028570;28;20186;-58
2022/04/21 00:03:24;;;;;;;7.85;5.13;;;;;;;-148.33;100.00;56587.81;5029013;28;20029;-58
2022/04/21 00:05:49;;;;;;;6.82;4.78;;;;;;;-148.33;100.00;56587.81;5028824;28;20095;-58
2022/04/21 00:08:17;;;;;;;4.68;4.22;;;;;;;-148.33;100.00;56587.81;5028801;28;20033;-59
2022/04/21 00:10:42;;;;;;;5.80;4.90;;;;;;;-148.33;100.00;56587.81;5028623;28;20072;-59
2022/04/21 00:13:08;;;;;;;6.15;4.32;;;;;;;-148.33;100.00;56587.81;5028235;28;20716;-58
2022/04/21 00:15:33;;;;;;;5.78;4.70;;;;;;;-148.33;100.00;56587.81;5028229;28;20087;-57
2022/04/21 00:17:59;;;;;;;5.18;4.45;;;;;;;-148.33;100.00;56587.81;5028689;28;20025;-59
2022/04/21 00:20:24;;;;;;;7.47;4.53;;;;;;;-148.33;100.00;56587.81;5028696;28;20489;-58
2022/04/21 00:25:34;;;;;;;6.32;4.25;;;;;;;-148.33;100.00;56587.81;5029311;28;20056;-59
2022/04/21 00:27:59;;;;;;;5.13;4.47;;;;;;;-148.33;100.00;56587.81;5028737;28;20033;-58
2022/04/21 00:30:25;;;;;;;5.28;4.15;;;;;;;-148.33;100.00;56587.81;5028069;28;20128;-57
2022/04/21 00:32:50;;;;;;;6.05;4.68;;;;;;;-148.33;100.00;56587.81;5028341;28;20073;-58
2022/04/21 00:35:17;;;;;;;4.82;4.43;;;;;;;-148.33;100.00;56587.81;5028045;28;20031;-58
2022/04/21 00:37:47;;;;;;;5.90;4.90;;;;;;;-148.33;100.00;56587.81;5027837;28;20077;-59
2022/04/21 00:40:14;;;;;;;4.93;4.37;;;;;;;-148.33;100.00;56587.81;5028240;28;20032;-59
2022/04/21 00:42:39;;;;;;;5.85;4.70;;;;;;;-148.33;100.00;56587.81;5027539;28;20040;-59
2022/04/21 00:45:05;;;;;;;6.50;4.85;;;;;;;-148.33;100.00;56587.81;5027700;28;20033;-58
2022/04/21 00:47:31;;;;;;;7.20;4.57;;;;;;;-148.33;100.00;56587.81;5028578;28;20080;-59
2022/04/21 00:49:56;;;;;;;5.78;4.65;;;;;;;-148.33;100.00;56587.81;5027986;28;20090;-58
2022/04/21 00:52:22;;;;;;;6.65;4.80;;;;;;;-148.33;100.00;56587.81;5028337;28;20533;-59
2022/04/21 00:54:48;;;;;;;5.10;4.55;;;;;;;-148.33;100.00;56587.81;5027948;28;20034;-59
2022/04/21 00:57:13;;;;;;;5.20;4.50;;;;;;;-148.33;100.00;56587.81;5027685;28;20569;-59
2022/04/21 00:59:39;;;;;;;5.25;4.70;;;;;;;-148.33;100.00;56587.81;5027821;28;20039;-57
2022/04/21 01:04:49;;;;;;;5.97;4.75;;;;;;;-148.33;100.00;56587.81;5028332;28;20060;-58
2022/04/21 01:07:14;;;;;;;6.13;4.60;;;;;;;-148.33;100.00;56587.81;5028051;28;20029;-58
2022/04/21 01:09:40;;;;;;;6.90;3.97;;;;;;;-148.33;100.00;56587.81;5027679;28;20119;-58
2022/04/21 01:12:09;;;;;;;6.18;4.32;;;;;;;-148.33;100.00;56587.81;5028049;28;20018;-59
2022/04/21 01:14:37;;;;;;;8.32;4.57;;;;;;;-148.33;100.00;56587.81;5027746;28;20125;-57
2022/04/21 01:17:03;;;;;;;5.20;4.70;;;;;;;-148.33;100.00;56587.81;5028347;28;20485;-59
2022/04/21 01:19:28;;;;;;;6.00;4.78;;;;;;;-148.33;100.00;56587.81;5028076;28;20083;-57
2022/04/21 01:21:53;;;;;;;5.65;4.45;;;;;;;-148.33;100.00;56587.81;5027691;28;20529;-59
2022/04/21 01:24:19;;;;;;;6.55;4.68;;;;;;;-148.33;100.00;56587.81;5027544;28;20029;-58
2022/04/21 01:26:46;;;;;;;5.22;4.72;;;;;;;-148.33;100.00;56587.81;5027861;28;20811;-58
2022/04/21 01:29:12;;;;;;;6.45;4.75;;;;;;;-148.33;100.00;56587.81;5028081;28;20104;-58
2022/04/21 01:31:38;;;;;;;5.32;4.82;;;;;;;-148.33;100.00;56587.81;5027516;28;20030;-57
2022/04/21 01:34:04;;;;;;;6.28;4.80;;;;;;;-148.33;100.00;56587.81;5027619;28;20124;-57
2022/04/21 01:36:29;;;;;;;7.07;5.28;;;;;;;-148.33;100.00;56587.81;5027616;28;20155;-57
2022/04/21 01:41:38;;;;;;;5.65;5.05;;;;;;;-148.33;100.00;56587.81;5027010;28;20076;-59
2022/04/21 01:44:03;;;;;;;5.28;4.78;;;;;;;-148.33;100.00;56587.81;5027712;28;20172;-57
2022/04/21 01:46:29;;;;;;;6.45;4.63;;;;;;;-148.33;100.00;56587.81;5027654;28;20401;-59
2022/04/21 01:48:54;;;;;;;5.43;4.95;;;;;;;-148.33;100.00;56587.81;5027685;28;20112;-57
2022/04/21 01:51:20;;;;;;;6.18;4.75;;;;;;;-148.33;100.00;56587.81;5027057;28;20026;-58
2022/04/21 01:53:45;;;;;;;6.40;5.18;;;;;;;-148.33;100.00;56587.81;5028231;28;20033;-59
2022/04/21 01:56:10;;;;;;;5.35;4.85;;;;;;;-148.33;100.00;56587.81;5031726;28;20519;-57
2022/04/21 01:58:36;;;;;;;5.55;5.03;;;;;;;-148.33;100.00;56587.81;5031537;28;20108;-59
2022/04/21 02:01:01;;;;;;;5.47;4.97;;;;;;;-148.33;100.00;56587.81;5030499;28;20025;-59
2022/04/21 02:03:28;;;;;;;5.97;4.90;;;;;;;-148.33;100.00;56587.81;5031152;28;20026;-58
2022/04/21 02:05:53;;;;;;;6.60;4.97;;;;;;;-148.33;100.00;56587.81;5031465;28;20030;-59
2022/04/21 02:08:18;;;;;;;9.85;5.20;;;;;;;-148.33;100.00;56587.81;5031495;28;20516;-58
2022/04/21 02:10:43;;;;;;;5.80;4.97;;;;;;;-148.33;100.00;56587.81;5031589;28;20100;-59
2022/04/21 02:13:09;;;;;;;5.25;4.85;;;;;;;-148.33;100.00;56587.81;5031150;28;20041;-59
2022/04/21 02:15:34;;;;;;;5.40;4.80;;;;;;;-148.33;100.00;56587.81;5030598;28;20097;-59
2022/04/21 02:18:03;;;;;;;5.75;5.22;;;;;;;-148.33;100.00;56587.81;5030976;28;20044;-58
2022/04/21 02:20:28;;;;;;;8.45;4.80;;;;;;;-148.33;100.00;56587.81;5031045;28;20505;-57
2022/04/21 02:22:53;;;;;;;5.30;4.80;;;;;;;-148.33;100.00;56587.81;5030803;28;20097;-59
2022/04/21 02:25:19;;;;;;;5.78;5.28;;;;;;;-148.33;100.00;56587.81;5029947;28;20034;-58
2022/04/21 02:27:46;;;;;;;6.72;5.43;;;;;;;-148.33;100.00;56587.81;5030300;28;20025;-59
2022/04/21 02:30:13;;;;;;;6.97;5.93;;;;;;;-148.33;100.00;56587.81;5030435;28;20033;-57
2022/04/21 02:32:40;;;;;;;5.53;5.03;;;;;;;-148.33;100.00;56587.81;5030298;28;20498;-59
2022/04/21 02:35:09;;;;;;;6.32;5.65;;;;;;;-148.33;100.00;56587.81;5029813;28;20032;-59
2022/04/21 02:37:39;;;;;;;6.20;5.10;;;;;;;-148.33;100.00;56587.81;5030848;28;20025;-58
2022/04/21 02:40:06;;;;;;;5.90;5.30;;;;;;;-148.33;100.00;56587.81;5030611;28;20029;-59
2022/04/21 02:42:32;;;;;;;7.63;5.78;;;;;;;-148.33;100.00;56587.81;5030267;28;20539;-58
2022/04/21 02:44:58;;;;;;;6.80;5.80;;;;;;;-148.33;100.00;56587.81;5030943;28;20033;-57
2022/04/21 02:47:23;;;;;;;6.30;5.70;;;;;;;-148.33;100.00;56587.81;5030192;28;20025;-58
2022/04/21 02:49:50;;;;;;;6.68;6.10;;;;;;;-148.33;100.00;56587.81;5030271;28;20021;-59
2022/04/21 02:52:16;;;;;;;7.40;6.20;;;;;;;-148.33;100.00;56587.81;5030569;28;20465;-59
2022/04/21 02:57:27;;;;;;;5.85;5.35;;;;;;;-148.33;100.00;56587.81;5030393;28;20039;-58
2022/04/21 02:59:54;;;;;;;7.80;6.13;;;;;;;-148.33;100.00;56587.81;5030213;28;20583;-59
2022/04/21 03:02:21;;;;;;;7.85;5.90;;;;;;;-148.33;100.00;56587.81;5030354;28;20573;-60
2022/04/21 03:04:47;;;;;;;6.68;5.80;;;;;;;-148.33;100.00;56587.81;5029714;28;20334;-58
2022/04/21 03:07:13;;;;;;;7.90;5.63;;;;;;;-148.33;100.00;56587.81;5029893;28;20079;-59
2022/04/21 03:09:40;;;;;;;6.97;5.50;;;;;;;-148.33;100.00;56587.81;5029948;28;20037;-57
2022/04/21 03:12:06;;;;;;;8.18;5.68;;;;;;;-148.33;100.00;56587.81;5029509;28;20113;-59
2022/04/21 03:14:35;;;;;;;6.30;5.07;;;;;;;-148.33;100.00;56587.81;5029399;28;20021;-58
2022/04/21 03:17:00;;;;;;;5.90;5.30;;;;;;;-148.33;100.00;56587.81;5029987;28;20025;-58
2022/04/21 03:19:25;;;;;;;6.05;5.47;;;;;;;-148.33;100.00;56587.81;5029556;28;20017;-59
2022/04/21 03:24:35;;;;;;;6.80;5.50;;;;;;;-148.33;100.00;56587.81;5029936;28;20037;-59
2022/04/21 03:27:02;;;;;;;5.45;5.05;;;;;;;-148.33;100.00;56587.81;5029339;28;20466;-58
2022/04/21 03:29:28;;;;;;;6.63;5.93;;;;;;;-148.33;100.00;56587.81;5029362;28;20033;-60
2022/04/21 03:31:53;;;;;;;6.13;5.38;;;;;;;-148.33;100.00;56587.81;5029749;28;20010;-60
2022/04/21 03:34:20;;;;;;;5.78;5.20;;;;;;;-148.33;100.00;56587.81;5029211;28;20049;-58
2022/04/21 03:36:50;;;;;;;6.80;5.63;;;;;;;-148.33;100.00;56587.81;5029401;28;20048;-59
2022/04/21 03:39:16;;;;;;;6.35;5.10;;;;;;;-148.33;100.00;56587.81;5029726;28;20212;-58
2022/04/21 03:41:42;;;;;;;5.30;4.80;;;;;;;-148.33;100.00;56587.81;5027659;28;20068;-57
2022/04/21 03:44:09;;;;;;;6.97;5.60;;;;;;;-148.33;100.00;56587.81;5029235;28;20064;-59
2022/04/21 03:46:34;;;;;;;5.90;5.28;;;;;;;-148.33;100.00;56587.81;5029535;28;20080;-59
2022/04/21 03:49:00;;;;;;;8.10;5.80;;;;;;;-148.33;100.00;56587.81;5028791;28;20033;-59
2022/04/21 03:51:27;;;;;;;7.05;5.82;;;;;;;-148.33;100.00;56587.81;5029404;28;20268;-59
2022/04/21 03:53:54;;;;;;;7.43;5.60;;;;;;;-148.33;100.00;56587.81;5028953;28;20026;-58
2022/04/21 03:56:19;;;;;;;6.40;5.40;;;;;;;-148.33;100.00;56587.81;5028870;28;20025;-57
2022/04/21 03:58:45;;;;;;;8.32;5.38;;;;;;;-148.33;100.00;56587.81;5028961;28;20481;-57
2022/04/21 04:01:10;;;;;;;6.50;5.50;;;;;;;-148.33;100.00;56587.81;5028835;28;20035;-57
2022/04/21 04:03:35;;;;;;;5.60;5.10;;;;;;;-148.33;100.00;56587.81;5028749;28;20112;-58
2022/04/21 04:06:00;;;;;;;8.00;6.07;;;;;;;-148.33;100.00;56587.81;5029091;28;20032;-59
2022/04/21 04:11:10;;;;;;;8.30;6.07;;;;;;;-148.33;100.00;56587.81;5028780;28;20048;-57
2022/04/21 04:13:35;;;;;;;6.65;6.00;;;;;;;-148.33;100.00;56587.81;5028895;28;20025;-58
2022/04/21 04:16:01;;;;;;;9.45;6.05;;;;;;;-148.33;100.00;56587.81;5027651;28;20029;-58
2022/04/21 04:18:26;;;;;;;6.43;5.72;;;;;;;-148.33;100.00;56587.81;5028489;28;20476;-59
2022/04/21 04:20:52;;;;;;;6.80;6.20;;;;;;;-148.33;100.00;56587.81;5027636;28;20497;-58
2022/04/21 04:23:19;;;;;;;6.43;5.82;;;;;;;-148.33;100.00;56587.81;5026606;28;20021;-58
2022/04/21 04:25:44;;;;;;;7.40;6.70;;;;;;;-148.33;100.00;56587.81;5026767;28;20022;-59
2022/04/21 04:28:10;;;;;;;6.28;5.68;;;;;;;-148.33;100.00;56587.81;5026129;28;20055;-59
2022/04/21 04:30:38;;;;;;;6.15;5.55;;;;;;;-148.33;100.00;56587.81;5026590;28;20025;-59
2022/04/21 04:33:04;;;;;;;7.10;6.43;;;;;;;-148.33;100.00;56587.81;5025941;28;20448;-59
2022/04/21 04:35:29;;;;;;;10.90;6.22;;;;;;;-148.33;100.00;56587.81;5028165;28;20484;-59
2022/04/21 04:37:55;;;;;;;6.82;5.97;;;;;;;-148.33;100.00;56587.81;5027886;28;20025;-57
2022/04/21 04:40:20;;;;;;;6.20;5.60;;;;;;;-148.33;100.00;56587.81;5028252;28;20021;-59
2022/04/21 04:42:45;;;;;;;6.82;6.00;;;;;;;-148.33;100.00;56587.81;5027882;28;20033;-59
2022/04/21 04:47:55;;;;;;;7.00;6.32;;;;;;;-148.33;100.00;56587.81;5048261;28;20040;-58
2022/04/21 04:50:20;;;;;;;9.05;5.93;;;;;;;-148.33;100.00;56587.81;5048226;28;20033;-59
2022/04/21 04:52:47;;;;;;;8.25;5.82;;;;;;;-148.33;100.00;56587.81;5046396;28;20079;-58
2022/04/21 04:55:13;;;;;;;7.97;6.35;;;;;;;-148.33;100.00;56587.81;5046858;28;20534;-58
2022/04/21 04:57:39;;;;;;;6.70;5.85;;;;;;;-148.33;100.00;56587.81;5043189;28;20064;-58
2022/04/21 05:00:08;;;;;;;6.43;5.47;;;;;;;-148.33;100.00;56587.81;5039875;28;20455;-57
2022/04/21 05:02:33;;;;;;;6.25;5.65;;;;;;;-148.33;100.00;56587.81;5033676;28;20033;-58
2022/04/21 05:04:58;;;;;;;7.72;6.90;;;;;;;-148.33;100.00;56587.81;5047357;28;20040;-60
2022/04/21 05:07:24;;;;;;;7.85;6.35;;;;;;;-148.33;100.00;56587.81;5030633;28;20500;-59
2022/04/21 05:09:49;;;;;;;6.78;5.95;;;;;;;-148.33;100.00;56587.81;5028105;28;20137;-57
2022/04/21 05:12:15;;;;;;;7.80;6.13;;;;;;;-148.33;100.00;56587.81;5028025;28;20374;-58
2022/04/21 05:14:40;;;;;;;8.38;6.32;;;;;;;-148.33;100.00;56587.81;5042881;28;20058;-58
2022/04/21 05:17:06;;;;;;;6.13;5.53;;;;;;;-148.33;100.00;56587.81;5047130;28;20029;-58
2022/04/21 05:19:31;;;;;;;9.10;6.25;;;;;;;-148.33;100.00;56587.81;5048175;28;20369;-59
2022/04/21 05:22:04;;;;;;;8.80;6.10;;;;;;;-148.33;100.00;56587.81;5047355;28;20287;-58
2022/04/21 05:24:33;;;;;;;8.40;7.32;;;;;;;-148.33;100.00;56587.81;5047390;28;20036;-57
2022/04/21 05:26:59;;;;;;;7.05;6.35;;;;;;;-148.33;100.00;56587.81;5047704;28;20041;-58
2022/04/21 05:32:10;;;;;;;8.63;6.13;;;;;;;-148.33;100.00;56587.81;5040756;28;20314;-58
2022/04/21 05:34:36;;;;;;;8.15;6.38;;;;;;;-148.33;100.00;56587.81;5051551;28;20029;-59
2022/04/21 05:37:02;;;;;;;6.88;6.00;;;;;;;-148.33;100.00;56587.81;5050962;28;20417;-58
2022/04/21 05:39:28;;;;;;;7.25;5.97;;;;;;;-148.33;100.00;56587.81;5051698;28;20027;-58
2022/04/21 05:41:55;;;;;;;6.35;5.75;;;;;;;-148.33;100.00;56587.81;5050565;28;20043;-59
2022/04/21 05:44:21;;;;;;;7.43;6.38;;;;;;;-148.33;100.00;56587.81;5047167;28;20044;-57
2022/04/21 05:46:46;;;;;;;8.52;6.57;;;;;;;-148.33;100.00;56587.81;5031840;28;20033;-58
2022/04/21 05:49:12;;;;;;;7.75;6.25;;;;;;;-148.33;100.00;56587.81;5042003;28;20161;-58
2022/04/21 05:51:38;;;;;;;7.68;6.00;;;;;;;-148.33;100.00;56587.81;5037084;28;20113;-59
2022/04/21 05:54:05;;;;;;;9.18;6.63;;;;;;;-148.33;100.00;56587.81;5031548;28;20037;-58
2022/04/21 05:56:31;;;;;;;6.85;6.20;;;;;;;-148.33;100.00;56587.81;5050991;28;20021;-57
2022/04/21 05:58:57;;;;;;;9.32;6.75;;;;;;;-148.33;100.00;56587.81;5037428;28;20025;-57
2022/04/21 06:01:23;;;;;;;7.32;6.22;;;;;;;-148.33;100.00;56587.81;5051710;28;20025;-58
2022/04/21 06:03:49;;;;;;;7.88;6.15;;;;;;;-148.33;100.00;56587.81;5048044;28;20089;-58
2022/04/21 06:06:14;;;;;;;8.00;6.28;;;;;;;-148.33;100.00;56587.81;5049430;28;20024;-57
2022/04/21 06:08:40;;;;;;;8.32;6.38;;;;;;;-148.33;100.00;56587.81;5045709;28;20034;-59
2022/04/21 06:11:06;;;;;;;9.27;7.32;;;;;;;-148.33;100.00;56587.81;5028858;28;20040;-59
2022/04/21 06:13:31;;;;;;;7.50;6.53;;;;;;;-148.33;100.00;56587.81;5028870;28;20470;-59
2022/04/21 06:15:59;;;;;;;8.02;6.63;;;;;;;-148.33;100.00;56587.81;5028569;28;20240;-56
2022/04/21 06:18:26;;;;;;;8.10;6.45;;;;;;;-148.33;100.00;56587.81;5029639;28;20025;-58
2022/04/21 06:20:52;;;;;;;7.78;6.18;;;;;;;-148.33;100.00;56587.81;5029607;28;20075;-57
2022/04/21 06:23:17;;;;;;;7.05;6.35;;;;;;;-148.33;100.00;56587.81;5029703;28;20489;-58
2022/04/21 06:25:43;;;;;;;7.13;6.35;;;;;;;-148.33;100.00;56587.81;5029287;28;20033;-55
2022/04/21 06:28:10;;;;;;;8.45;6.32;;;;;;;-148.33;100.00;56587.81;5030469;28;20017;-57
2022/04/21 06:30:35;;;;;;;7.13;6.22;;;;;;;-148.33;100.00;56587.81;5030225;28;20591;-58
2022/04/21 06:33:01;;;;;;;7.35;6.18;;;;;;;-148.33;100.00;56587.81;5028686;28;20045;-56
2022/04/21 06:35:27;;;;;;;7.60;5.90;;;;;;;-148.33;100.00;56587.81;5028382;28;20040;-56
2022/04/21 06:37:53;;;;;;;8.07;6.20;;;;;;;-148.33;100.00;56587.81;5028915;28;20365;-57
2022/04/21 06:40:19;;;;;;;9.02;6.00;;;;;;;-148.33;100.00;56587.81;5027276;28;20029;-58
2022/04/21 06:42:44;;;;;;;7.35;6.03;;;;;;;-148.33;100.00;56587.81;5028826;28;20034;-58
2022/04/21 06:48:03;;;;;;;6.20;5.53;;;;;;;-148.33;100.00;56587.81;5029148;28;20500;-59
2022/04/21 06:50:49;;;;;;;7.93;6.20;;;;;;;-148.33;100.00;56587.81;5029905;28;20094;-57
2022/04/21 06:53:14;;;;;;;7.00;5.43;;;;;;;-148.33;100.00;56587.81;5028563;28;20041;-58
2022/04/21 06:55:39;;;;;;;7.57;5.60;;;;;;;-148.33;100.00;56587.81;5029194;28;20079;-58
2022/04/21 06:58:05;;;;;;;6.78;6.18;;;;;;;-148.33;100.00;56587.81;5029135;28;20028;-59
2022/04/21 07:00:30;;;;;;;6.43;5.80;;;;;;;-148.33;100.00;56587.81;5028848;28;20509;-58
2022/04/21 07:02:57;;;;;;;6.78;6.07;;;;;;;-148.33;100.00;56587.81;5029043;28;20033;-57
2022/04/21 07:05:24;;;;;;;6.35;5.60;;;;;;;-148.33;100.00;56587.81;5038404;28;20409;-57
2022/04/21 07:07:51;;;;;;;6.00;5.40;;;;;;;-148.33;100.00;56587.81;5049041;28;20029;-58
2022/04/21 07:10:18;;;;;;;10.32;5.90;;;;;;;-148.33;100.00;56587.81;5049029;28;20472;-57
2022/04/21 07:12:44;;;;;;;5.75;5.25;;;;;;;-148.33;100.00;56587.81;5048125;28;20035;-58
2022/04/21 07:15:10;;;;;;;6.78;5.45;;;;;;;-148.33;100.00;56587.81;5049233;28;20037;-58
2022/04/21 07:17:37;;;;;;;8.57;5.93;;;;;;;-148.33;100.00;56587.81;5048380;28;20032;-58
2022/04/21 07:20:04;;;;;;;6.20;5.70;;;;;;;-148.33;100.00;56587.81;5049146;28;20041;-59
2022/04/21 07:22:30;;;;;;;6.63;5.30;;;;;;;-148.33;100.00;56587.81;5048943;28;20036;-58
2022/04/21 07:24:57;;;;;;;7.90;5.35;;;;;;;-148.33;100.00;56587.81;5048542;28;20032;-59
2022/04/21 07:27:23;;;;;;;6.60;5.10;;;;;;;-148.33;100.00;56587.81;5048201;28;20476;-59
2022/04/21 07:29:49;;;;;;;6.38;5.55;;;;;;;-148.33;100.00;56587.81;5049045;28;20033;-60
2022/04/21 07:32:14;;;;;;;6.75;5.28;;;;;;;-148.33;100.00;56587.81;5044320;28;101802;-59
2022/04/21 07:34:40;;;;;;;6.05;4.88;;;;;;;-148.33;100.00;56587.81;5048510;28;20044;-58
2022/04/21 07:37:07;;;;;;;8.02;5.10;;;;;;;-148.33;100.00;56587.81;5049595;28;20112;-60
2022/04/21 07:39:32;;;;;;;7.57;5.50;;;;;;;-148.33;100.00;56587.81;5048829;28;20168;-58
2022/04/21 07:41:58;;;;;;;10.85;5.70;;;;;;;-148.33;100.00;56587.81;5049323;28;20130;-60
2022/04/21 07:44:24;;;;;;;5.85;5.13;;;;;;;-148.33;100.00;56587.81;5049059;28;20021;-59
2022/04/21 07:46:50;;;;;;;7.28;5.50;;;;;;;-148.33;100.00;56587.81;5049604;28;20121;-59
2022/04/21 07:54:43;;;;;;;6.13;4.88;;;;;;;-148.33;100.00;56587.81;5048997;28;20082;-59
2022/04/21 07:57:09;;;;;;;7.45;5.32;;;;;;;-148.33;100.00;56587.81;5049544;28;20459;-59
2022/04/21 07:59:35;;;;;;;6.25;4.85;;;;;;;-148.33;100.00;56587.81;5048911;28;20095;-60
2022/04/21 08:02:01;;;;;;;6.95;4.63;;;;;;;-148.33;100.00;56587.81;5048713;28;20033;-59
2022/04/21 08:04:26;;;;;;;7.40;5.10;;;;;;;-148.33;100.00;56587.81;5048759;28;20025;-58
2022/04/21 08:06:53;;;;;;;7.47;4.97;;;;;;;-148.33;100.00;56587.81;5048625;28;20029;-59
2022/04/21 08:09:19;;;;;;;9.15;5.45;;;;;;;-148.33;100.00;56587.81;5049139;28;20025;-60
2022/04/21 08:11:44;;;;;;;5.50;4.78;;;;;;;-148.33;100.00;56587.81;5048681;28;20049;-61
2022/04/21 08:14:09;;;;;;;5.13;4.55;;;;;;;-148.33;100.00;56587.81;5049007;28;20031;-60
2022/04/21 08:16:35;;;;;;;8.68;4.88;;;;;;;-148.33;100.00;56587.81;5048731;28;20136;-61
2022/04/21 08:19:00;;;;;;;6.22;4.97;;;;;;;-148.33;100.00;56587.81;5048904;28;20039;-60
2022/04/21 08:21:25;;;;;;;5.45;5.00;;;;;;;-148.33;100.00;56587.81;5048131;28;20108;-60
2022/04/21 08:23:51;;;;;;;7.55;4.65;;;;;;;-148.33;100.00;56587.81;5048560;28;20393;-60
2022/04/21 08:34:30;;;;;;;7.82;5.00;;;;;;;-148.33;100.00;56587.81;5047891;28;20064;-61
2022/04/21 08:36:55;;;;;;;6.43;4.47;;;;;;;-148.33;100.00;56587.81;5048714;28;20519;-59
2022/04/21 08:39:21;;;;;;;11.25;5.15;;;;;;;-148.33;100.00;56587.81;5048210;28;20090;-61
2022/04/21 08:41:51;;;;;;;7.72;4.72;;;;;;;-148.33;100.00;56587.81;5048636;28;20017;-60
2022/04/21 08:44:19;;;;;;;9.65;4.43;;;;;;;-148.33;100.00;56587.81;5047871;28;20094;-59
2022/04/21 08:46:47;;;;;;;5.78;4.57;;;;;;;-148.33;100.00;56587.81;5048310;28;20040;-61
2022/04/21 08:49:14;;;;;;;6.15;4.47;;;;;;;-148.33;100.00;56587.81;5048452;28;20048;-60
2022/04/21 08:51:40;;;;;;;4.65;3.72;;;;;;;-148.33;100.00;56587.81;5047208;28;20552;-59
2022/04/21 08:54:06;;;;;;;6.00;4.53;;;;;;;-148.33;100.00;56587.81;5048260;28;20028;-61
2022/04/21 08:56:32;;;;;;;4.70;3.65;;;;;;;-148.33;100.00;56587.81;5047993;28;20024;-60
2022/04/21 08:58:57;;;;;;;8.10;4.25;;;;;;;-148.33;100.00;56587.81;5048025;28;20027;-60
2022/04/21 09:01:23;;;;;;;5.72;3.50;;;;;;;-148.33;100.00;56587.81;5048177;28;20017;-61
2022/04/21 09:03:49;;;;;;;6.53;3.67;;;;;;;-148.33;100.00;56587.81;5047435;28;20039;-61
2022/04/21 09:06:14;;;;;;;5.80;4.05;;;;;;;-148.33;100.00;56587.81;5048299;28;20477;-59
2022/04/21 09:08:39;;;;;;;5.60;3.42;;;;;;;-148.33;100.00;56587.81;5048184;28;20311;-60
2022/04/21 09:11:07;;;;;;;4.38;3.00;;;;;;;-148.33;100.00;56587.81;5047516;28;20029;-60
2022/04/21 09:13:38;;;;;;;4.00;3.70;;;;;;;-148.33;100.00;56587.81;5047997;28;20035;-61
2022/04/21 09:16:06;;;;;;;3.40;2.90;;;;;;;-148.33;100.00;56587.81;5047170;28;20033;-59
2022/04/21 09:18:44;;;;;;;4.15;2.40;;;;;;;-148.33;100.00;56587.81;5048298;28;20025;-61
2022/04/21 09:21:14;;;;;;;3.08;2.88;;;;;;;-148.33;100.00;56587.81;5048394;28;20033;-60
2022/04/21 09:23:41;;;;;;;6.28;3.22;;;;;;;-148.33;100.00;56587.81;5048025;28;20108;-60
2022/04/21 09:26:15;;;;;;;5.05;3.10;;;;;;;-148.33;100.00;56587.81;5047703;28;20107;-61
2022/04/21 09:28:41;;;;;;;4.03;3.13;;;;;;;-148.33;100.00;56587.81;5048037;28;20029;-60
2022/04/21 09:31:08;;;;;;;3.13;2.90;;;;;;;-148.33;100.00;56587.81;5047836;28;20029;-61
2022/04/21 09:33:40;;;;;;;3.88;3.50;;;;;;;-148.33;100.00;56587.81;5047164;28;20432;-61
2022/04/21 09:36:07;;;;;;;3.90;2.88;;;;;;;-148.33;100.00;56587.81;5047808;28;20607;-61
2022/04/21 09:38:36;;;;;;;5.03;3.00;;;;;;;-148.33;100.00;56587.81;5047379;28;20032;-61
2022/04/21 09:41:22;;;;;;;4.40;3.08;;;;;;;-148.33;100.00;56587.81;5047573;28;20033;-61
2022/04/21 09:43:49;;;;;;;4.25;3.00;;;;;;;-148.33;100.00;56587.81;5046798;28;20033;-62
2022/04/21 09:46:23;;;;;;;3.78;3.38;;;;;;;-148.33;100.00;56587.81;5047994;28;20100;-62
2022/04/21 09:48:53;;;;;;;5.07;2.70;;;;;;;-148.33;100.00;56587.81;5047345;28;20043;-61
2022/04/21 09:51:25;;;;;;;3.97;2.90;;;;;;;-148.33;100.00;56587.81;5047960;28;20036;-62
2022/04/21 09:53:53;;;;;;;3.55;2.25;;;;;;;-148.33;100.00;56587.81;5047511;28;20037;-61
2022/04/21 09:56:29;;;;;;;2.97;2.58;;;;;;;-148.33;100.00;56587.81;5047533;28;20052;-61
2022/04/21 09:58:56;;;;;;;5.50;2.75;;;;;;;-148.33;100.00;56587.81;5047190;28;20017;-61
2022/04/21 10:01:21;;;;;;;2.67;2.10;;;;;;;-148.33;100.00;56587.81;5047666;28;20128;-61
2022/04/21 10:03:47;;;;;;;3.83;1.92;;;;;;;-148.33;100.00;56587.81;5047327;28;20094;-61
2022/04/21 10:06:14;;;;;;;2.38;2.15;;;;;;;-148.33;100.00;56587.81;5047496;28;20188;-61
2022/04/21 10:08:41;;;;;;;2.92;2.00;;;;;;;-148.33;100.00;56587.81;5046902;28;20024;-61
2022/04/21 10:11:08;;;;;;;3.33;2.33;;;;;;;-148.33;100.00;56587.81;5047498;28;20036;-61
2022/04/21 10:13:33;;;;;;;3.10;2.47;;;;;;;-148.33;100.00;56587.81;5047513;28;20031;-60
2022/04/21 10:16:00;;;;;;;2.20;2.03;;;;;;;-148.33;100.00;56587.81;5050348;28;20021;-60
2022/04/21 10:18:25;;;;;;;1.95;1.85;;;;;;;-148.33;100.00;56587.81;5050554;28;20032;-61
2022/04/21 10:20:53;;;;;;;3.15;2.00;;;;;;;-148.33;100.00;56587.81;5051165;28;20029;-62
2022/04/21 10:23:19;;;;;;;2.42;2.20;;;;;;;-148.33;100.00;56587.81;5050632;28;20532;-60
2022/04/21 10:25:44;;;;;;;2.75;1.92;;;;;;;-148.33;100.00;56587.81;5051071;28;20100;-61
2022/04/21 10:28:34;;;;;;;2.72;2.10;;;;;;;-148.33;100.00;56587.81;5050914;28;20030;-61
2022/04/21 10:31:25;;;;;;;5.80;1.77;;;;;;;-148.33;100.00;56587.81;5051052;28;20086;-62
2022/04/21 10:33:57;;;;;;;3.63;1.88;;;;;;;-148.33;100.00;56587.81;5050551;28;20054;-60
2022/04/21 10:37:04;;;;;;;3.40;1.60;;;;;;;-148.33;100.00;56587.81;5051151;28;20483;-60
2022/04/21 10:39:30;;;;;;;3.85;1.90;;;;;;;-148.33;100.00;56587.81;5042328;28;20060;-59
2022/04/21 10:42:19;;;;;;;3.35;2.15;;;;;;;-148.33;100.00;56587.81;5050296;28;20028;-62
2022/04/21 10:44:51;;;;;;;5.03;1.50;;;;;;;-148.33;100.00;56587.81;5041749;28;20033;-60
2022/04/21 10:47:26;;;;;;;3.47;1.70;;;;;;;-148.33;100.00;56587.81;5050502;28;20100;-61
2022/04/21 10:50:12;;;;;;;3.13;1.77;;;;;;;-148.33;100.00;56587.81;5050656;28;20067;-61
2022/04/21 10:57:50;;;;;;;3.20;1.50;;;;;;;-148.33;100.00;56587.81;5050821;28;20087;-60
2022/04/21 11:00:27;;;;;;;2.28;1.35;;;;;;;-148.33;100.00;56587.81;5050475;28;20032;-61
2022/04/21 11:03:06;;;;;;;2.65;1.60;;;;;;;-148.33;100.00;56587.81;5049922;28;20029;-60
2022/04/21 11:05:38;;;;;;;4.78;1.60;;;;;;;-148.33;100.00;56587.81;5050325;28;20024;-61
2022/04/21 11:08:04;;;;;;;2.33;1.55;;;;;;;-148.33;100.00;56587.81;5049937;28;20032;-61
2022/04/21 11:10:39;;;;;;;5.00;2.20;;;;;;;-148.33;100.00;56587.81;5050134;28;20440;-60
2022/04/21 11:13:12;;;;;;;5.60;2.10;;;;;;;-148.33;100.00;56587.81;5050066;28;20361;-60
2022/04/21 11:15:47;;;;;;;3.50;1.60;;;;;;;-148.33;100.00;56587.81;5050273;28;20401;-62
2022/04/21 11:18:21;;;;;;;4.32;1.80;;;;;;;-148.33;100.00;56587.81;5049439;28;20063;-61
2022/04/21 11:20:49;;;;;;;3.03;1.40;;;;;;;-148.33;100.00;56587.81;5049635;28;20041;-61
2022/04/21 11:23:29;;;;;;;5.65;1.90;;;;;;;-148.33;100.00;56587.81;5050164;28;20049;-61
2022/04/21 11:26:08;;;;;;;2.47;1.73;;;;;;;-148.33;100.00;56587.81;5048281;28;20021;-59
2022/04/21 11:28:34;;;;;;;4.00;1.98;;;;;;;-148.33;100.00;56587.81;5049663;28;20400;-62
2022/04/21 11:31:03;;;;;;;1.77;1.67;;;;;;;-148.33;100.00;56587.81;5049633;28;20029;-60
2022/04/21 11:33:31;;;;;;;3.10;1.60;;;;;;;-148.33;100.00;56587.81;5049352;28;20489;-61
2022/04/21 11:36:10;;;;;;;3.58;1.65;;;;;;;-148.33;100.00;56587.81;5049944;28;20056;-60
2022/04/21 11:38:39;;;;;;;5.13;2.28;;;;;;;-148.33;100.00;56587.81;5049092;28;20039;-61
2022/04/21 11:41:07;;;;;;;8.30;1.98;;;;;;;-148.33;100.00;56587.81;5049851;28;20106;-62
2022/04/21 11:43:33;;;;;;;2.88;1.63;;;;;;;-148.33;100.00;56587.81;5049864;28;20351;-61
2022/04/21 11:46:06;;;;;;;1.65;1.50;;;;;;;-148.33;100.00;56587.81;5049353;28;20372;-61
2022/04/21 11:48:34;;;;;;;3.78;1.70;;;;;;;-148.33;100.00;56587.81;5049446;28;20033;-61
2022/04/21 11:51:00;;;;;;;4.28;1.70;;;;;;;-148.33;100.00;56587.81;5049644;28;20465;-60
2022/04/21 11:53:28;;;;;;;3.72;1.60;;;;;;;-148.33;100.00;56587.81;5049341;28;20051;-60